North Liberty, Iowa
Current Conditions -  °F | °C
As of 1:52 AM on Sunday 23 Nov 2014 (Local Time) from KIOW Reporting Station
Overcast Overcast  
Wind Chill: 52°   Ceiling: 1400
Heat Index: 52°   Visibility: 10mi
Dew Point: 50°   Wind: 12mph
Humidity: 93%   Direction: 170°S
Pressure: 29.7"   Gusts: NA
Location:  41.75°N, 91.6°W
Report Text: KIOW 230752Z AUTO 17010KT 10SM OVC014 11/10 A2970 RMK AO2 SLP058 T01110100
Loading
Personal Weather Stations






























Interactive Weather Map New forecast layout! Learn more

10-Day Weather Forecast

Advertisements
Track Severe Weather on mobile